Holly Hill, South Carolina
Current Conditions -  °F | °C
As of 1:15 AM on Sunday 23 Nov 2014 (Local Time) from KDYB Reporting Station
Drizzle Drizzle  
Wind Chill: 52°   Ceiling: 9500
Heat Index: 52°   Visibility: 7mi
Dew Point: 52°   Wind: 3mph
Humidity: 100%   Direction: 20°NNE
Pressure: 30.26"   Gusts: NA
Location:  33.32°N, 80.41°W
Report Text: KDYB 230615Z AUTO 02003KT 7SM -DZ BKN095 OVC110 11/11 A3026 RMK AO1
Loading
Personal Weather Stations






























Interactive Weather Map New forecast layout! Learn more

10-Day Weather Forecast

Advertisements
Track Severe Weather on mobile